createdAt,value
2022-10-11T00:01:07.090Z,6.00
2022-10-11T00:03:37.875Z,5.80
2022-10-11T00:06:07.488Z,6.20
2022-10-11T00:08:37.441Z,6.10
2022-10-11T00:11:07.563Z,5.70
2022-10-11T00:13:36.276Z,6.50
2022-10-11T00:16:13.050Z,6.60
2022-10-11T00:18:42.356Z,6.40
2022-10-11T00:21:14.109Z,6.90
2022-10-11T00:23:43.638Z,6.20
2022-10-11T00:26:12.494Z,6.40
2022-10-11T00:28:41.945Z,5.20
2022-10-11T00:31:13.902Z,6.00
2022-10-11T00:33:42.893Z,6.40
2022-10-11T00:36:14.724Z,6.50
2022-10-11T00:38:44.894Z,6.00
2022-10-11T00:41:14.602Z,6.50
2022-10-11T00:43:43.976Z,6.20
2022-10-11T00:46:18.754Z,6.80
2022-10-11T00:49:06.339Z,6.10
2022-10-11T00:51:46.697Z,6.50
2022-10-11T00:54:19.829Z,6.40
2022-10-11T00:56:53.362Z,7.10
2022-10-11T00:59:32.374Z,6.70
2022-10-11T01:02:01.201Z,6.70
2022-10-11T01:04:29.961Z,5.50
2022-10-11T01:06:59.339Z,6.00
2022-10-11T01:09:31.074Z,6.10
2022-10-11T01:12:03.394Z,5.60
2022-10-11T01:15:14.036Z,5.90
2022-10-11T01:17:58.595Z,5.90
2022-10-11T01:20:48.436Z,6.30
2022-10-11T01:24:12.152Z,5.50
2022-10-11T01:27:34.791Z,6.00
2022-10-11T01:33:23.872Z,5.80
2022-10-11T01:36:11.231Z,5.30
2022-10-11T01:38:55.050Z,5.90
2022-10-11T01:41:31.568Z,5.80
2022-10-11T01:44:01.672Z,5.30
2022-10-11T01:46:31.353Z,6.00
2022-10-11T01:49:02.083Z,6.20
2022-10-11T01:51:35.596Z,5.90
2022-10-11T01:55:07.632Z,5.40
2022-10-11T01:57:49.225Z,5.80
2022-10-11T02:00:25.995Z,5.50
2022-10-11T02:03:00.546Z,6.00
2022-10-11T02:05:42.463Z,5.80
2022-10-11T02:08:50.697Z,5.90
2022-10-11T02:11:27.176Z,6.00
2022-10-11T02:14:25.301Z,6.60
2022-10-11T02:17:09.476Z,6.30
2022-10-11T02:19:43.383Z,6.60
2022-10-11T02:22:26.281Z,6.80
2022-10-11T02:24:58.335Z,7.20
2022-10-11T02:27:31.403Z,6.50
2022-10-11T02:30:02.780Z,6.80
2022-10-11T02:32:32.673Z,6.90
2022-10-11T02:35:02.731Z,6.70
2022-10-11T02:37:54.120Z,6.50
2022-10-11T02:40:28.689Z,6.30
2022-10-11T02:43:17.901Z,7.00
2022-10-11T02:45:54.615Z,7.50
2022-10-11T02:48:24.391Z,7.90
2022-10-11T02:50:53.841Z,7.50
2022-10-11T02:53:25.917Z,8.20
2022-10-11T02:55:55.822Z,7.30
2022-10-11T02:58:25.671Z,8.40
2022-10-11T03:00:54.519Z,8.60
2022-10-11T03:03:23.288Z,8.20
2022-10-11T03:05:51.876Z,8.70
2022-10-11T03:08:20.495Z,9.50
2022-10-11T03:10:49.322Z,8.60
2022-10-11T03:13:18.597Z,8.40
2022-10-11T03:16:02.939Z,8.60
2022-10-11T03:18:32.607Z,8.90
2022-10-11T03:21:01.336Z,9.20
2022-10-11T03:23:30.089Z,8.50
2022-10-11T03:25:58.805Z,9.30
2022-10-11T03:28:27.641Z,8.10
2022-10-11T03:30:56.430Z,8.00
2022-10-11T03:33:25.417Z,9.20
2022-10-11T03:35:54.028Z,8.70
2022-10-11T03:38:23.071Z,8.80
2022-10-11T03:40:52.007Z,8.80
2022-10-11T03:43:20.684Z,9.10
2022-10-11T03:45:49.434Z,9.90
2022-10-11T03:48:18.242Z,9.60
2022-10-11T03:50:46.959Z,10.40
2022-10-11T03:53:15.716Z,10.80
2022-10-11T03:55:44.516Z,10.80
2022-10-11T03:58:13.310Z,10.00
2022-10-11T04:00:42.047Z,9.90
2022-10-11T04:03:10.738Z,10.20
2022-10-11T04:05:39.558Z,10.00
2022-10-11T04:08:11.958Z,11.60
2022-10-11T04:10:41.491Z,10.30
2022-10-11T04:13:11.894Z,10.70
2022-10-11T04:15:41.635Z,10.00
2022-10-11T04:18:10.524Z,11.90
2022-10-11T04:20:39.234Z,10.20
2022-10-11T04:23:07.888Z,9.50
2022-10-11T04:25:39.706Z,10.70
2022-10-11T04:28:09.462Z,10.90
2022-10-11T04:30:38.140Z,10.20
2022-10-11T04:33:06.905Z,10.30
2022-10-11T04:35:35.509Z,11.70
2022-10-11T04:38:04.232Z,10.40
2022-10-11T04:40:33.468Z,11.70
2022-10-11T04:43:02.291Z,11.00
2022-10-11T04:45:31.276Z,10.30
2022-10-11T04:48:00.329Z,11.60
2022-10-11T04:50:29.230Z,11.20
2022-10-11T04:52:59.336Z,11.50
2022-10-11T04:55:29.319Z,11.90
2022-10-11T04:57:58.227Z,12.40
2022-10-11T05:00:27.782Z,12.00
2022-10-11T05:02:57.232Z,10.90
2022-10-11T05:05:26.163Z,11.50
2022-10-11T05:07:54.874Z,11.60
2022-10-11T05:10:23.489Z,11.30
2022-10-11T05:12:52.221Z,11.70
2022-10-11T05:15:20.989Z,11.60
2022-10-11T05:17:49.877Z,12.50
2022-10-11T05:20:18.580Z,11.80
2022-10-11T05:22:47.476Z,12.20
2022-10-11T05:25:16.383Z,10.80
2022-10-11T05:27:45.618Z,11.70
2022-10-11T05:30:14.245Z,11.90
2022-10-11T05:32:43.198Z,12.70
2022-10-11T05:35:11.924Z,13.00
2022-10-11T05:37:40.634Z,13.10
2022-10-11T05:40:11.447Z,12.60
2022-10-11T05:42:40.124Z,11.90
2022-10-11T05:45:09.619Z,12.90
2022-10-11T05:47:38.479Z,13.00
2022-10-11T05:50:07.623Z,14.30
2022-10-11T05:52:36.589Z,14.40
2022-10-11T05:55:06.598Z,14.60
2022-10-11T05:57:35.342Z,15.60
2022-10-11T06:00:06.165Z,14.80
2022-10-11T06:02:41.600Z,15.70
2022-10-11T06:05:10.312Z,14.70
2022-10-11T06:07:39.098Z,17.10
2022-10-11T06:10:08.670Z,17.00
2022-10-11T06:12:37.521Z,17.50
2022-10-11T06:15:07.672Z,17.90
2022-10-11T06:17:36.448Z,16.40
2022-10-11T06:20:05.560Z,16.30
2022-10-11T06:22:34.311Z,15.60
2022-10-11T06:25:03.194Z,13.60
2022-10-11T06:27:31.997Z,14.60
2022-10-11T06:30:01.157Z,13.20
2022-10-11T06:32:29.890Z,12.60
2022-10-11T06:34:58.605Z,11.20
2022-10-11T06:37:27.472Z,11.10
2022-10-11T06:39:56.250Z,10.60
2022-10-11T06:42:24.866Z,9.90
2022-10-11T06:44:53.456Z,9.90
2022-10-11T06:47:22.290Z,9.70
2022-10-11T06:49:51.116Z,10.30
2022-10-11T06:52:19.982Z,10.20
2022-10-11T06:54:48.635Z,9.10
2022-10-11T06:57:17.349Z,9.80
2022-10-11T06:59:46.010Z,9.00
2022-10-11T07:02:14.833Z,9.60
2022-10-11T07:04:43.476Z,9.40
2022-10-11T07:07:14.565Z,9.10
2022-10-11T07:09:44.486Z,9.90
2022-10-11T07:12:13.354Z,10.80
2022-10-11T07:14:41.960Z,10.10
2022-10-11T07:17:10.720Z,10.40
2022-10-11T07:19:39.254Z,11.10
2022-10-11T07:22:07.997Z,9.10
2022-10-11T07:24:36.780Z,8.90
2022-10-11T07:30:16.953Z,9.30
2022-10-11T07:32:45.839Z,7.00
2022-10-11T07:35:14.537Z,7.30
2022-10-11T07:37:43.475Z,7.10
2022-10-11T07:40:12.303Z,6.80
2022-10-11T07:42:41.191Z,7.20
2022-10-11T07:45:10.049Z,6.70
2022-10-11T07:47:39.076Z,7.80
2022-10-11T07:50:09.023Z,8.40
2022-10-11T07:52:38.922Z,8.50
2022-10-11T07:55:08.446Z,8.40
2022-10-11T07:57:37.208Z,9.70
2022-10-11T08:00:07.280Z,9.10
2022-10-11T08:02:40.658Z,9.30
2022-10-11T08:05:09.549Z,8.20
2022-10-11T08:07:38.248Z,7.30
2022-10-11T08:10:07.933Z,7.40
2022-10-11T08:12:36.491Z,8.20
2022-10-11T08:15:05.838Z,7.90
2022-10-11T08:17:34.599Z,6.80
2022-10-11T08:20:03.929Z,8.60
2022-10-11T08:22:32.821Z,8.40
2022-10-11T08:25:01.468Z,7.30
2022-10-11T08:27:30.246Z,6.70
2022-10-11T08:29:59.354Z,7.50
2022-10-11T08:32:28.095Z,8.50
2022-10-11T08:34:57.056Z,7.20
2022-10-11T08:37:25.958Z,8.70
2022-10-11T08:39:54.760Z,8.30
2022-10-11T08:42:36.788Z,6.90
2022-10-11T08:45:12.223Z,7.00
2022-10-11T08:47:46.462Z,7.20
2022-10-11T08:50:23.976Z,7.60
2022-10-11T08:53:54.399Z,7.80
2022-10-11T08:56:24.615Z,6.50
2022-10-11T08:59:03.775Z,7.80
2022-10-11T09:01:32.793Z,6.70
2022-10-11T09:04:01.546Z,5.80
2022-10-11T09:06:51.264Z,5.70
2022-10-11T09:10:12.594Z,5.20
2022-10-11T09:12:41.203Z,7.30
2022-10-11T09:15:25.204Z,6.40
2022-10-11T09:18:27.613Z,8.50
2022-10-11T09:21:17.466Z,6.40
2022-10-11T09:24:40.458Z,6.50
2022-10-11T09:27:18.385Z,5.90
2022-10-11T09:29:50.902Z,5.20
2022-10-11T09:32:21.932Z,6.00
2022-10-11T09:35:19.194Z,4.00
2022-10-11T09:38:22.391Z,4.10
2022-10-11T09:41:29.972Z,4.40
2022-10-11T09:43:59.023Z,5.50
2022-10-11T09:46:43.918Z,4.60
2022-10-11T09:49:16.969Z,5.20
2022-10-11T09:52:11.607Z,3.80
2022-10-11T09:54:42.560Z,5.60
2022-10-11T09:57:55.384Z,4.90
2022-10-11T10:00:33.868Z,4.20
2022-10-11T10:03:05.860Z,3.70
2022-10-11T10:05:38.648Z,4.70
2022-10-11T10:08:10.382Z,3.00
2022-10-11T10:11:08.680Z,3.30
2022-10-11T10:13:51.824Z,3.30
2022-10-11T10:16:35.125Z,4.50
2022-10-11T10:19:16.936Z,3.20
2022-10-11T10:21:52.751Z,3.30
2022-10-11T10:24:25.126Z,5.50
2022-10-11T10:27:09.192Z,3.10
2022-10-11T10:29:38.393Z,2.70
2022-10-11T10:32:21.283Z,2.70
2022-10-11T10:35:13.916Z,2.10
2022-10-11T10:37:59.126Z,2.50
2022-10-11T10:40:58.514Z,2.80
2022-10-11T10:43:36.682Z,2.40
2022-10-11T10:46:40.552Z,1.90
2022-10-11T10:49:53.983Z,2.10
2022-10-11T10:52:48.068Z,1.90
2022-10-11T10:55:33.544Z,2.90
2022-10-11T10:58:15.067Z,1.80
2022-10-11T11:00:53.711Z,1.80
2022-10-11T11:03:42.817Z,2.00
2022-10-11T11:06:30.582Z,2.10
2022-10-11T11:09:25.962Z,2.10
2022-10-11T11:12:23.307Z,1.90
2022-10-11T11:15:31.409Z,2.20
2022-10-11T11:18:26.203Z,2.30
2022-10-11T11:21:55.645Z,2.10
2022-10-11T11:24:54.828Z,2.20
2022-10-11T11:27:57.606Z,1.80
2022-10-11T11:30:37.803Z,1.70
2022-10-11T11:33:20.933Z,2.30
2022-10-11T11:35:54.317Z,2.00
2022-10-11T11:38:37.754Z,2.60
2022-10-11T11:41:13.467Z,1.90
2022-10-11T11:44:27.998Z,2.10
2022-10-11T11:47:12.277Z,2.30
2022-10-11T11:49:45.876Z,2.40
2022-10-11T11:52:27.512Z,2.20
2022-10-11T11:55:09.818Z,2.10
2022-10-11T11:58:08.084Z,2.20
2022-10-11T12:01:04.327Z,2.20
2022-10-11T12:03:46.229Z,2.60
2022-10-11T12:06:14.966Z,4.00
2022-10-11T12:09:19.209Z,2.80
2022-10-11T12:12:07.072Z,3.60
2022-10-11T12:14:42.220Z,3.80
2022-10-11T12:17:17.805Z,2.30
2022-10-11T12:19:59.693Z,2.40
2022-10-11T12:22:28.427Z,2.60
2022-10-11T12:25:09.411Z,4.30
2022-10-11T12:27:52.588Z,3.10
2022-10-11T12:30:51.038Z,2.20
2022-10-11T12:33:46.832Z,2.50
2022-10-11T12:36:37.346Z,2.80
2022-10-11T12:39:24.315Z,2.40
2022-10-11T12:42:07.437Z,2.90
2022-10-11T12:44:36.450Z,3.00
2022-10-11T12:47:40.103Z,2.80
2022-10-11T12:50:48.143Z,3.20
2022-10-11T12:53:41.344Z,3.20
2022-10-11T12:56:49.670Z,3.50
2022-10-11T12:59:24.019Z,3.60
2022-10-11T13:01:59.507Z,3.50
2022-10-11T13:04:33.376Z,4.30
2022-10-11T13:07:07.763Z,4.30
2022-10-11T13:09:44.157Z,3.80
2022-10-11T13:12:23.585Z,4.20
2022-10-11T13:15:07.246Z,3.40
2022-10-11T13:17:41.324Z,3.70
2022-10-11T13:20:24.958Z,4.00
2022-10-11T13:22:56.525Z,4.20
2022-10-11T13:25:37.654Z,4.10
2022-10-11T13:28:09.206Z,3.80
2022-10-11T13:30:43.168Z,3.30
2022-10-11T13:33:28.006Z,3.30
2022-10-11T13:35:56.710Z,3.70
2022-10-11T13:38:32.426Z,3.10
2022-10-11T13:41:08.611Z,2.50
2022-10-11T13:43:38.529Z,2.00
2022-10-11T13:46:12.911Z,2.50
2022-10-11T13:48:42.122Z,2.50
2022-10-11T13:51:34.293Z,2.50
2022-10-11T13:54:13.781Z,2.70
2022-10-11T13:56:46.825Z,2.30
2022-10-11T14:01:59.039Z,2.60
2022-10-11T14:04:29.881Z,2.90
2022-10-11T14:07:02.935Z,2.80
2022-10-11T14:09:38.562Z,2.60
2022-10-11T14:12:41.079Z,3.20
2022-10-11T14:15:31.041Z,2.60
2022-10-11T14:18:01.424Z,3.90
2022-10-11T14:20:39.659Z,3.30
2022-10-11T14:23:08.390Z,2.80
2022-10-11T14:25:37.208Z,3.00
2022-10-11T14:28:11.696Z,3.20
2022-10-11T14:30:42.326Z,2.70
2022-10-11T14:33:12.007Z,3.00
2022-10-11T14:35:41.783Z,2.80
2022-10-11T14:38:12.558Z,3.30
2022-10-11T14:40:41.308Z,3.10
2022-10-11T14:43:10.135Z,4.10
2022-10-11T14:45:39.032Z,3.90
2022-10-11T14:48:07.671Z,4.00
2022-10-11T14:51:01.958Z,6.20
2022-10-11T14:53:30.996Z,4.90
2022-10-11T14:56:00.053Z,4.90
2022-10-11T14:58:28.932Z,4.40
2022-10-11T15:00:57.684Z,4.70
2022-10-11T15:03:26.515Z,4.60
2022-10-11T15:05:55.398Z,5.00
2022-10-11T15:08:24.257Z,5.20
2022-10-11T15:10:53.054Z,6.70
2022-10-11T15:13:22.854Z,6.20
2022-10-11T15:15:51.595Z,6.70
2022-10-11T15:18:21.347Z,7.10
2022-10-11T15:20:51.600Z,6.50
2022-10-11T15:23:20.200Z,7.30
2022-10-11T15:25:48.888Z,7.00
2022-10-11T15:28:31.796Z,6.70
2022-10-11T15:31:01.005Z,6.40
2022-10-11T15:33:29.692Z,6.30
2022-10-11T15:35:58.363Z,7.70
2022-10-11T15:38:28.151Z,9.80
2022-10-11T15:40:57.192Z,11.60
2022-10-11T15:43:28.036Z,10.60
2022-10-11T15:45:58.541Z,11.40
2022-10-11T15:48:27.936Z,12.30
2022-10-11T15:50:56.937Z,12.90
2022-10-11T15:53:31.505Z,10.90
2022-10-11T15:56:09.468Z,7.50
2022-10-11T15:58:41.213Z,7.50
2022-10-11T16:01:21.243Z,8.80
2022-10-11T16:03:51.130Z,8.90
2022-10-11T16:06:19.921Z,10.50
2022-10-11T16:08:48.561Z,8.30
2022-10-11T16:11:17.515Z,7.70
2022-10-11T16:13:46.088Z,6.60
2022-10-11T16:16:14.970Z,7.70
2022-10-11T16:18:43.690Z,8.10
2022-10-11T16:21:15.830Z,7.90
2022-10-11T16:23:44.574Z,7.50
2022-10-11T16:26:16.763Z,7.70
2022-10-11T16:28:45.645Z,7.50
2022-10-11T16:31:18.381Z,8.10
2022-10-11T16:33:48.161Z,8.00
2022-10-11T16:36:40.909Z,10.20
2022-10-11T16:39:17.151Z,9.60
2022-10-11T16:41:46.814Z,10.80
2022-10-11T16:44:19.269Z,13.50
2022-10-11T16:46:49.419Z,11.40
2022-10-11T16:49:22.706Z,9.10
2022-10-11T16:51:53.048Z,7.20
2022-10-11T16:54:22.552Z,6.70
2022-10-11T16:56:51.421Z,8.80
2022-10-11T16:59:20.681Z,8.00
2022-10-11T17:01:49.398Z,10.60
2022-10-11T17:04:18.093Z,7.60
2022-10-11T17:06:47.026Z,7.20
2022-10-11T17:09:16.272Z,7.80
2022-10-11T17:11:45.191Z,17.30
2022-10-11T17:14:14.441Z,14.80
2022-10-11T17:16:43.980Z,13.00
2022-10-11T17:19:15.218Z,12.30
2022-10-11T17:24:12.629Z,11.80
2022-10-11T17:26:41.374Z,11.70
2022-10-11T17:29:15.486Z,12.10
2022-10-11T17:31:49.034Z,14.10
2022-10-11T17:34:18.478Z,14.50
2022-10-11T17:36:48.148Z,16.80
2022-10-11T17:39:21.549Z,17.20
2022-10-11T17:41:50.899Z,15.70
2022-10-11T17:44:21.905Z,15.40
2022-10-11T17:46:50.804Z,18.90
2022-10-11T17:49:19.563Z,18.70
2022-10-11T17:51:48.150Z,20.90
2022-10-11T17:54:17.092Z,21.10
2022-10-11T17:56:45.834Z,20.70
2022-10-11T17:59:23.240Z,18.70
2022-10-11T18:01:52.057Z,16.80
2022-10-11T18:04:22.011Z,16.20
2022-10-11T18:06:50.677Z,14.90
2022-10-11T18:09:20.299Z,14.70
2022-10-11T18:11:49.725Z,14.00
2022-10-11T18:14:18.605Z,14.00
2022-10-11T18:16:47.263Z,12.30
2022-10-11T18:19:15.966Z,19.20
2022-10-11T18:21:45.192Z,21.70
2022-10-11T18:24:16.767Z,22.40
2022-10-11T18:26:46.119Z,20.80
2022-10-11T18:29:15.297Z,21.60
2022-10-11T18:31:44.102Z,22.70
2022-10-11T18:34:14.023Z,22.60
2022-10-11T18:36:42.714Z,24.70
2022-10-11T18:39:14.729Z,27.30
2022-10-11T18:41:44.757Z,28.20
2022-10-11T18:44:15.543Z,26.10
2022-10-11T18:46:44.932Z,29.80
2022-10-11T18:52:48.581Z,23.70
2022-10-11T18:57:46.058Z,22.30
2022-10-11T19:00:37.693Z,17.70
2022-10-11T19:03:04.439Z,17.10
2022-10-11T19:05:33.217Z,13.10
2022-10-11T19:08:02.117Z,17.10
2022-10-11T19:10:30.825Z,16.70
2022-10-11T19:12:59.672Z,17.60
2022-10-11T19:15:29.006Z,16.80
2022-10-11T19:17:57.849Z,19.00
2022-10-11T19:20:27.555Z,17.40
2022-10-11T19:22:59.179Z,18.00
2022-10-11T19:25:27.663Z,19.00
2022-10-11T19:27:56.260Z,18.30
2022-10-11T19:30:25.436Z,19.00
2022-10-11T19:32:53.944Z,19.80
2022-10-11T19:35:22.731Z,19.60
2022-10-11T19:37:51.394Z,20.20
2022-10-11T19:40:20.171Z,18.60
2022-10-11T19:42:48.716Z,17.30
2022-10-11T19:45:17.391Z,15.10
2022-10-11T19:47:46.111Z,16.20
2022-10-11T19:50:14.726Z,15.30
2022-10-11T19:52:45.042Z,14.20
2022-10-11T19:55:13.741Z,16.60
2022-10-11T19:57:42.394Z,15.30
2022-10-11T20:00:11.864Z,16.30
2022-10-11T20:02:40.736Z,15.10
2022-10-11T20:05:09.670Z,15.20
2022-10-11T20:07:38.360Z,14.10
2022-10-11T20:10:07.137Z,15.60
2022-10-11T20:12:36.031Z,14.20
2022-10-11T20:15:05.195Z,14.80
2022-10-11T20:17:48.813Z,14.70
2022-10-11T20:20:19.022Z,15.00
2022-10-11T20:22:47.654Z,15.50
2022-10-11T20:25:16.366Z,14.60
2022-10-11T20:27:46.497Z,14.80
2022-10-11T20:30:15.147Z,13.50
2022-10-11T20:32:43.613Z,13.30
2022-10-11T20:35:12.381Z,13.60
2022-10-11T20:37:41.101Z,15.30
2022-10-11T20:40:11.249Z,15.40
2022-10-11T20:42:39.817Z,14.70
2022-10-11T20:45:09.098Z,14.50
2022-10-11T20:47:37.628Z,16.30
2022-10-11T20:50:06.675Z,19.20
2022-10-11T20:52:35.523Z,21.20
2022-10-11T20:55:04.788Z,23.60
2022-10-11T20:57:33.536Z,28.00
2022-10-11T21:00:02.224Z,27.30
2022-10-11T21:02:31.026Z,29.70
2022-10-11T21:04:59.704Z,25.60
2022-10-11T21:07:28.329Z,22.80
2022-10-11T21:09:57.574Z,20.10
2022-10-11T21:12:26.215Z,18.70
2022-10-11T21:14:54.701Z,19.10
2022-10-11T21:17:23.343Z,21.30
2022-10-11T21:19:52.040Z,17.90
2022-10-11T21:22:20.680Z,17.30
2022-10-11T21:24:49.517Z,18.10
2022-10-11T21:27:18.175Z,16.30
2022-10-11T21:29:47.010Z,16.00
2022-10-11T21:32:15.706Z,14.60
2022-10-11T21:34:45.069Z,17.00
2022-10-11T21:37:13.993Z,19.20
2022-10-11T21:39:43.270Z,22.50
2022-10-11T21:42:12.076Z,17.60
2022-10-11T21:44:43.572Z,17.80
2022-10-11T21:47:12.709Z,17.80
2022-10-11T21:49:41.364Z,18.70
2022-10-11T21:52:10.528Z,17.60
2022-10-11T21:54:39.361Z,19.50
2022-10-11T21:57:08.091Z,18.80
2022-10-11T21:59:36.788Z,19.90
2022-10-11T22:02:05.538Z,19.20
2022-10-11T22:04:34.887Z,19.40
2022-10-11T22:07:03.913Z,18.60
2022-10-11T22:09:35.238Z,17.60
2022-10-11T22:14:32.661Z,12.70
2022-10-11T22:17:01.369Z,12.20
2022-10-11T22:19:30.207Z,10.60
2022-10-11T22:21:58.646Z,12.00
2022-10-11T22:24:29.215Z,11.20
2022-10-11T22:26:57.842Z,11.40
2022-10-11T22:29:31.752Z,9.90
2022-10-11T22:32:03.215Z,10.30
2022-10-11T22:34:33.546Z,10.40
2022-10-11T22:37:02.150Z,10.60
2022-10-11T22:39:31.020Z,10.60
2022-10-11T22:41:59.669Z,10.20
2022-10-11T22:44:28.323Z,10.50
2022-10-11T22:46:57.196Z,10.20
2022-10-11T22:49:25.766Z,10.60
2022-10-11T22:51:54.499Z,10.70
2022-10-11T22:54:23.043Z,10.50
2022-10-11T22:56:51.691Z,9.90
2022-10-11T22:59:20.465Z,11.10
2022-10-11T23:01:49.164Z,10.90
2022-10-11T23:04:17.917Z,11.20
2022-10-11T23:06:46.714Z,11.00
2022-10-11T23:09:15.456Z,11.50
2022-10-11T23:11:44.108Z,11.10
2022-10-11T23:14:12.896Z,11.40
2022-10-11T23:16:41.359Z,12.60
2022-10-11T23:19:10.022Z,11.50
2022-10-11T23:24:54.925Z,12.40
2022-10-11T23:27:23.647Z,11.70
2022-10-11T23:29:52.160Z,12.10
2022-10-11T23:32:20.892Z,11.00
2022-10-11T23:34:49.491Z,11.30
2022-10-11T23:37:18.248Z,10.60
2022-10-11T23:39:47.020Z,10.80
2022-10-11T23:42:15.604Z,10.50
2022-10-11T23:44:44.208Z,11.20
2022-10-11T23:47:12.850Z,9.30
2022-10-11T23:49:41.701Z,11.00
2022-10-11T23:52:10.406Z,10.00
2022-10-11T23:54:39.070Z,10.20
2022-10-11T23:57:07.783Z,10.60
2022-10-11T23:59:36.456Z,10.00
